Lafayette Regional Airport

Airport
ICAO code: 
KLFT
Summary
ICAO Region: 
NAM
Territory: 
Location: 
Lafayette, Louisiana,
Serving: 
Lafayette, Louisiana
Coordinates: 
Aerial View: 
30° 12' 16.929" N, 91° 59' 14.02" W
Airport LOS: 
Parallel Runway Operation
Metar
Observation
KLFT 021553Z 25005KT 10SM CLR 21/17 A3022 RMK AO2 SLP233 T02060172
Station
Lafayette, Lafayette Regional Airport
Date/Time
2021-12-02 15:53:00
Wind direction
250°
Wind speed
05 kts
Lowest cloud amount
n/a
Temperature
20.6°C
Dew point
17.2°C
Humidity
80%
Weather condition
n/a

Description

Lafayette Regional Airport is a public use airport located 4 km southeast of the central business district of Lafayette, a city in Lafayette Parish, Louisiana.

Climatology

Humid “subtropical” climate (Köppen climate classification Cfa) - characterized by hot, humid summers and cool winters. Significant amounts of precipitation occur in all seasons in most areas. Winter rainfall is associated with large storms that the westerlies steer from west to east. Most summer rainfall occurs during thunderstorms and occasional tropical storms (hurricanes).

Runways

Designator Length Width Surface Rops
04L/22R 1249 23 ASP Yes/Yes
11/29 1646 45 ASP Yes/Yes
04R/22L 2332 46 ASP Yes/Yes
Airport map: 
Aerial View: 

SKYbrary Partners:

Safety knowledge contributed by: